Terminal Aerodrome Forecast
Issued by NWS Mt. Holly, NJ

Home | Current Version | Previous Version | Text Only | Print | Product List | Glossary On
Versions: 1 2 3 4 5 6 7 8 9 10 11 12 13 14 15 16 17 18 19 20 21 22 23
000
FTUS41 KPHI 201100
TAFPHL
TAF
KPHL 201134Z 2012/2118 36006KT P6SM OVC025
     FM201700 35005KT P6SM SCT030 BKN200
     FM210000 VRB02KT P6SM SCT030 BKN100
     FM211400 35005KT P6SM SCT030 BKN060=

USA.gov is the U.S. government's official web portal to all federal, state and local government web resources and services.